sensor_id;sensor_type;location;lat;lon;timestamp;P1;P2;P0
70243;PMS7003;57634;51.136;17.024;2023-07-09T00:01:35;19;18;14
70243;PMS7003;57634;51.136;17.024;2023-07-09T00:04:38;19;18;14
70243;PMS7003;57634;51.136;17.024;2023-07-09T00:07:39;21;19;14
70243;PMS7003;57634;51.136;17.024;2023-07-09T00:10:42;19;19;14
70243;PMS7003;57634;51.136;17.024;2023-07-09T00:13:44;17;15;13
70243;PMS7003;57634;51.136;17.024;2023-07-09T00:20:26;15;15;11
70243;PMS7003;57634;51.136;17.024;2023-07-09T00:23:28;14;14;11
70243;PMS7003;57634;51.136;17.024;2023-07-09T00:26:31;15;14;10
70243;PMS7003;57634;51.136;17.024;2023-07-09T00:29:37;15;15;12
70243;PMS7003;57634;51.136;17.024;2023-07-09T00:32:39;14;14;11
70243;PMS7003;57634;51.136;17.024;2023-07-09T00:35:45;15;14;11
70243;PMS7003;57634;51.136;17.024;2023-07-09T00:38:51;16;14;11
70243;PMS7003;57634;51.136;17.024;2023-07-09T00:42:19;12;12;9
70243;PMS7003;57634;51.136;17.024;2023-07-09T00:45:25;14;14;10
70243;PMS7003;57634;51.136;17.024;2023-07-09T00:48:28;18;14;11
70243;PMS7003;57634;51.136;17.024;2023-07-09T00:51:41;14;12;10
70243;PMS7003;57634;51.136;17.024;2023-07-09T00:54:42;13;12;10
70243;PMS7003;57634;51.136;17.024;2023-07-09T00:57:47;13;13;10
70243;PMS7003;57634;51.136;17.024;2023-07-09T01:01:00;13;13;9
70243;PMS7003;57634;51.136;17.024;2023-07-09T01:04:33;15;13;10
70243;PMS7003;57634;51.136;17.024;2023-07-09T01:07:36;12;12;9
70243;PMS7003;57634;51.136;17.024;2023-07-09T01:10:38;15;12;10
70243;PMS7003;57634;51.136;17.024;2023-07-09T01:13:41;12;12;9
70243;PMS7003;57634;51.136;17.024;2023-07-09T01:16:48;15;14;10
70243;PMS7003;57634;51.136;17.024;2023-07-09T01:19:57;14;14;10
70243;PMS7003;57634;51.136;17.024;2023-07-09T01:22:59;15;13;10
70243;PMS7003;57634;51.136;17.024;2023-07-09T01:26:01;11;10;8
70243;PMS7003;57634;51.136;17.024;2023-07-09T01:29:03;12;11;9
70243;PMS7003;57634;51.136;17.024;2023-07-09T01:32:05;14;13;9
70243;PMS7003;57634;51.136;17.024;2023-07-09T01:35:34;15;15;11
70243;PMS7003;57634;51.136;17.024;2023-07-09T01:38:37;13;13;10
70243;PMS7003;57634;51.136;17.024;2023-07-09T01:41:38;14;13;10
70243;PMS7003;57634;51.136;17.024;2023-07-09T01:44:40;14;13;11
70243;PMS7003;57634;51.136;17.024;2023-07-09T01:47:41;13;13;10
70243;PMS7003;57634;51.136;17.024;2023-07-09T01:50:44;14;14;10
70243;PMS7003;57634;51.136;17.024;2023-07-09T01:53:45;15;15;11
70243;PMS7003;57634;51.136;17.024;2023-07-09T01:56:47;14;14;11
70243;PMS7003;57634;51.136;17.024;2023-07-09T01:59:49;14;13;11
70243;PMS7003;57634;51.136;17.024;2023-07-09T02:02:51;15;14;11
70243;PMS7003;57634;51.136;17.024;2023-07-09T02:05:53;14;13;10
70243;PMS7003;57634;51.136;17.024;2023-07-09T02:08:55;14;14;11
70243;PMS7003;57634;51.136;17.024;2023-07-09T02:11:56;12;12;9
70243;PMS7003;57634;51.136;17.024;2023-07-09T02:15:23;12;12;8
70243;PMS7003;57634;51.136;17.024;2023-07-09T02:18:25;13;12;10
70243;PMS7003;57634;51.136;17.024;2023-07-09T02:21:28;15;12;9
70243;PMS7003;57634;51.136;17.024;2023-07-09T02:24:31;14;14;10
70243;PMS7003;57634;51.136;17.024;2023-07-09T02:27:34;13;13;11
70243;PMS7003;57634;51.136;17.024;2023-07-09T02:30:37;15;13;10
70243;PMS7003;57634;51.136;17.024;2023-07-09T02:33:38;12;12;9
70243;PMS7003;57634;51.136;17.024;2023-07-09T02:36:40;14;12;10
70243;PMS7003;57634;51.136;17.024;2023-07-09T02:39:43;14;14;11
70243;PMS7003;57634;51.136;17.024;2023-07-09T02:42:44;13;13;10
70243;PMS7003;57634;51.136;17.024;2023-07-09T02:45:46;13;12;9
70243;PMS7003;57634;51.136;17.024;2023-07-09T02:48:47;15;15;12
70243;PMS7003;57634;51.136;17.024;2023-07-09T02:51:48;15;14;11
70243;PMS7003;57634;51.136;17.024;2023-07-09T02:55:15;16;15;12
70243;PMS7003;57634;51.136;17.024;2023-07-09T02:58:16;17;16;13
70243;PMS7003;57634;51.136;17.024;2023-07-09T03:01:18;15;14;11
70243;PMS7003;57634;51.136;17.024;2023-07-09T03:04:27;15;14;11
70243;PMS7003;57634;51.136;17.024;2023-07-09T03:07:29;15;15;12
70243;PMS7003;57634;51.136;17.024;2023-07-09T03:10:30;16;15;11
70243;PMS7003;57634;51.136;17.024;2023-07-09T03:13:31;19;19;14
70243;PMS7003;57634;51.136;17.024;2023-07-09T03:16:33;18;18;14
70243;PMS7003;57634;51.136;17.024;2023-07-09T03:19:35;18;17;13
70243;PMS7003;57634;51.136;17.024;2023-07-09T03:22:37;14;14;11
70243;PMS7003;57634;51.136;17.024;2023-07-09T03:25:41;15;14;11
70243;PMS7003;57634;51.136;17.024;2023-07-09T03:28:43;14;14;11
70243;PMS7003;57634;51.136;17.024;2023-07-09T03:32:10;15;14;11
70243;PMS7003;57634;51.136;17.024;2023-07-09T03:35:12;13;13;11
70243;PMS7003;57634;51.136;17.024;2023-07-09T03:38:13;17;13;11
70243;PMS7003;57634;51.136;17.024;2023-07-09T03:41:14;15;15;11
70243;PMS7003;57634;51.136;17.024;2023-07-09T03:44:16;14;14;11
70243;PMS7003;57634;51.136;17.024;2023-07-09T03:47:17;16;14;12
70243;PMS7003;57634;51.136;17.024;2023-07-09T03:50:18;13;13;11
70243;PMS7003;57634;51.136;17.024;2023-07-09T03:53:20;16;15;11
70243;PMS7003;57634;51.136;17.024;2023-07-09T03:56:21;15;15;12
70243;PMS7003;57634;51.136;17.024;2023-07-09T03:59:22;13;13;11
70243;PMS7003;57634;51.136;17.024;2023-07-09T04:02:24;16;15;11
70243;PMS7003;57634;51.136;17.024;2023-07-09T04:05:25;14;14;11
70243;PMS7003;57634;51.136;17.024;2023-07-09T04:08:28;16;16;13
70243;PMS7003;57634;51.136;17.024;2023-07-09T04:11:34;18;16;12
70243;PMS7003;57634;51.136;17.024;2023-07-09T04:15:05;18;17;13
70243;PMS7003;57634;51.136;17.024;2023-07-09T04:18:07;17;16;13
70243;PMS7003;57634;51.136;17.024;2023-07-09T04:21:09;17;17;13
70243;PMS7003;57634;51.136;17.024;2023-07-09T04:24:10;15;15;12
70243;PMS7003;57634;51.136;17.024;2023-07-09T04:27:11;17;16;13
70243;PMS7003;57634;51.136;17.024;2023-07-09T04:30:14;16;15;11
70243;PMS7003;57634;51.136;17.024;2023-07-09T04:33:16;16;15;12
70243;PMS7003;57634;51.136;17.024;2023-07-09T04:36:18;15;15;12
70243;PMS7003;57634;51.136;17.024;2023-07-09T04:39:19;14;13;11
70243;PMS7003;57634;51.136;17.024;2023-07-09T04:42:21;13;12;10
70243;PMS7003;57634;51.136;17.024;2023-07-09T04:45:22;12;12;9
70243;PMS7003;57634;51.136;17.024;2023-07-09T04:48:24;15;15;12
70243;PMS7003;57634;51.136;17.024;2023-07-09T04:51:25;13;13;11
70243;PMS7003;57634;51.136;17.024;2023-07-09T04:54:52;14;14;11
70243;PMS7003;57634;51.136;17.024;2023-07-09T04:57:54;14;13;10
70243;PMS7003;57634;51.136;17.024;2023-07-09T05:00:59;13;13;11
70243;PMS7003;57634;51.136;17.024;2023-07-09T05:04:00;12;12;9
70243;PMS7003;57634;51.136;17.024;2023-07-09T05:07:02;14;13;10
70243;PMS7003;57634;51.136;17.024;2023-07-09T05:10:04;10;10;8
70243;PMS7003;57634;51.136;17.024;2023-07-09T05:13:06;13;13;10
70243;PMS7003;57634;51.136;17.024;2023-07-09T05:16:08;12;11;9
70243;PMS7003;57634;51.136;17.024;2023-07-09T05:19:10;10;9;7
70243;PMS7003;57634;51.136;17.024;2023-07-09T05:22:11;11;11;9
70243;PMS7003;57634;51.136;17.024;2023-07-09T05:25:13;9;9;7
70243;PMS7003;57634;51.136;17.024;2023-07-09T05:28:14;8;8;7
70243;PMS7003;57634;51.136;17.024;2023-07-09T05:31:15;9;9;7
70243;PMS7003;57634;51.136;17.024;2023-07-09T05:34:43;9;8;8
70243;PMS7003;57634;51.136;17.024;2023-07-09T05:37:44;10;10;8
70243;PMS7003;57634;51.136;17.024;2023-07-09T05:40:45;9;9;6
70243;PMS7003;57634;51.136;17.024;2023-07-09T05:43:47;10;10;8
70243;PMS7003;57634;51.136;17.024;2023-07-09T05:46:50;8;8;7
70243;PMS7003;57634;51.136;17.024;2023-07-09T05:49:51;9;9;7
70243;PMS7003;57634;51.136;17.024;2023-07-09T05:52:53;8;8;7
70243;PMS7003;57634;51.136;17.024;2023-07-09T05:55:54;9;9;7
70243;PMS7003;57634;51.136;17.024;2023-07-09T05:58:56;8;8;7
70243;PMS7003;57634;51.136;17.024;2023-07-09T06:01:58;9;9;8
70243;PMS7003;57634;51.136;17.024;2023-07-09T06:05:03;9;9;7
70243;PMS7003;57634;51.136;17.024;2023-07-09T06:08:06;8;7;7
70243;PMS7003;57634;51.136;17.024;2023-07-09T06:11:07;9;8;7
70243;PMS7003;57634;51.136;17.024;2023-07-09T06:14:35;9;9;8
70243;PMS7003;57634;51.136;17.024;2023-07-09T06:17:36;8;7;7
70243;PMS7003;57634;51.136;17.024;2023-07-09T06:20:38;8;7;6
70243;PMS7003;57634;51.136;17.024;2023-07-09T06:23:40;9;9;8
70243;PMS7003;57634;51.136;17.024;2023-07-09T06:26:41;8;8;7
70243;PMS7003;57634;51.136;17.024;2023-07-09T06:29:43;7;7;6
70243;PMS7003;57634;51.136;17.024;2023-07-09T06:32:44;8;8;7
70243;PMS7003;57634;51.136;17.024;2023-07-09T06:35:46;8;8;7
70243;PMS7003;57634;51.136;17.024;2023-07-09T06:38:49;8;8;7
70243;PMS7003;57634;51.136;17.024;2023-07-09T06:41:50;8;8;7
70243;PMS7003;57634;51.136;17.024;2023-07-09T06:44:52;8;8;7
70243;PMS7003;57634;51.136;17.024;2023-07-09T06:47:53;9;9;7
70243;PMS7003;57634;51.136;17.024;2023-07-09T06:50:55;8;8;7
70243;PMS7003;57634;51.136;17.024;2023-07-09T06:54:25;6;5;4
70243;PMS7003;57634;51.136;17.024;2023-07-09T06:57:26;8;8;7
70243;PMS7003;57634;51.136;17.024;2023-07-09T07:00:28;8;8;8
70243;PMS7003;57634;51.136;17.024;2023-07-09T07:03:30;8;8;7
70243;PMS7003;57634;51.136;17.024;2023-07-09T07:06:33;7;7;6
70243;PMS7003;57634;51.136;17.024;2023-07-09T07:09:35;8;8;7
70243;PMS7003;57634;51.136;17.024;2023-07-09T07:12:43;9;9;8
70243;PMS7003;57634;51.136;17.024;2023-07-09T07:15:48;8;8;7
70243;PMS7003;57634;51.136;17.024;2023-07-09T07:18:53;9;8;7
70243;PMS7003;57634;51.136;17.024;2023-07-09T07:21:54;9;9;7
70243;PMS7003;57634;51.136;17.024;2023-07-09T07:24:56;9;9;8
70243;PMS7003;57634;51.136;17.024;2023-07-09T07:28:23;8;8;7
70243;PMS7003;57634;51.136;17.024;2023-07-09T07:31:24;8;8;7
70243;PMS7003;57634;51.136;17.024;2023-07-09T07:34:26;7;7;7
70243;PMS7003;57634;51.136;17.024;2023-07-09T07:37:27;6;6;6
70243;PMS7003;57634;51.136;17.024;2023-07-09T07:40:28;6;6;6
70243;PMS7003;57634;51.136;17.024;2023-07-09T07:43:30;7;7;6
70243;PMS7003;57634;51.136;17.024;2023-07-09T07:46:32;7;7;7
70243;PMS7003;57634;51.136;17.024;2023-07-09T07:49:34;6;6;6
70243;PMS7003;57634;51.136;17.024;2023-07-09T07:52:35;6;6;5
70243;PMS7003;57634;51.136;17.024;2023-07-09T07:55:38;7;6;6
70243;PMS7003;57634;51.136;17.024;2023-07-09T07:58:39;7;6;6
70243;PMS7003;57634;51.136;17.024;2023-07-09T08:01:41;7;7;6
70243;PMS7003;57634;51.136;17.024;2023-07-09T08:04:43;6;6;6
70243;PMS7003;57634;51.136;17.024;2023-07-09T08:07:44;7;7;6
70243;PMS7003;57634;51.136;17.024;2023-07-09T08:11:11;7;7;6
70243;PMS7003;57634;51.136;17.024;2023-07-09T08:14:13;5;5;5
70243;PMS7003;57634;51.136;17.024;2023-07-09T08:17:14;6;6;5
70243;PMS7003;57634;51.136;17.024;2023-07-09T08:20:16;5;4;3
70243;PMS7003;57634;51.136;17.024;2023-07-09T08:23:18;5;5;4
70243;PMS7003;57634;51.136;17.024;2023-07-09T08:26:20;5;5;4
70243;PMS7003;57634;51.136;17.024;2023-07-09T08:29:21;5;5;5
70243;PMS7003;57634;51.136;17.024;2023-07-09T08:32:22;5;5;5
70243;PMS7003;57634;51.136;17.024;2023-07-09T08:35:24;4;3;3
70243;PMS7003;57634;51.136;17.024;2023-07-09T08:38:25;6;6;5
70243;PMS7003;57634;51.136;17.024;2023-07-09T08:48:16;6;6;6
70243;PMS7003;57634;51.136;17.024;2023-07-09T08:51:33;6;6;5
70243;PMS7003;57634;51.136;17.024;2023-07-09T08:54:40;7;7;6
70243;PMS7003;57634;51.136;17.024;2023-07-09T08:57:45;7;7;5
70243;PMS7003;57634;51.136;17.024;2023-07-09T09:00:55;7;7;6
70243;PMS7003;57634;51.136;17.024;2023-07-09T09:04:21;6;6;5
70243;PMS7003;57634;51.136;17.024;2023-07-09T09:07:41;5;5;4
70243;PMS7003;57634;51.136;17.024;2023-07-09T09:10:53;5;4;4
70243;PMS7003;57634;51.136;17.024;2023-07-09T09:14:01;4;4;3
70243;PMS7003;57634;51.136;17.024;2023-07-09T09:20:19;5;4;4
70243;PMS7003;57634;51.136;17.024;2023-07-09T09:23:54;4;4;3
70243;PMS7003;57634;51.136;17.024;2023-07-09T09:27:00;4;4;3
70243;PMS7003;57634;51.136;17.024;2023-07-09T09:30:01;4;4;4
70243;PMS7003;57634;51.136;17.024;2023-07-09T09:33:07;3;3;3
70243;PMS7003;57634;51.136;17.024;2023-07-09T09:39:25;4;4;3
70243;PMS7003;57634;51.136;17.024;2023-07-09T09:42:27;4;4;3
70243;PMS7003;57634;51.136;17.024;2023-07-09T09:45:32;3;3;2
70243;PMS7003;57634;51.136;17.024;2023-07-09T09:49:02;3;3;2
70243;PMS7003;57634;51.136;17.024;2023-07-09T09:52:10;2;2;2
70243;PMS7003;57634;51.136;17.024;2023-07-09T09:55:28;5;5;4
70243;PMS7003;57634;51.136;17.024;2023-07-09T09:58:29;4;4;3
70243;PMS7003;57634;51.136;17.024;2023-07-09T10:01:33;2;2;2
70243;PMS7003;57634;51.136;17.024;2023-07-09T10:04:36;3;3;2
70243;PMS7003;57634;51.136;17.024;2023-07-09T10:07:41;4;4;3
70243;PMS7003;57634;51.136;17.024;2023-07-09T10:14:36;3;3;2
70243;PMS7003;57634;51.136;17.024;2023-07-09T10:17:42;3;3;3
70243;PMS7003;57634;51.136;17.024;2023-07-09T10:41:24;3;3;3
70243;PMS7003;57634;51.136;17.024;2023-07-09T10:44:34;4;3;3
70243;PMS7003;57634;51.136;17.024;2023-07-09T10:47:39;4;3;3
70243;PMS7003;57634;51.136;17.024;2023-07-09T10:51:32;5;5;4
70243;PMS7003;57634;51.136;17.024;2023-07-09T10:54:34;5;4;3
70243;PMS7003;57634;51.136;17.024;2023-07-09T10:57:48;5;5;4
70243;PMS7003;57634;51.136;17.024;2023-07-09T11:00:55;5;4;4
70243;PMS7003;57634;51.136;17.024;2023-07-09T11:04:00;4;4;4
70243;PMS7003;57634;51.136;17.024;2023-07-09T11:10:47;6;6;5
70243;PMS7003;57634;51.136;17.024;2023-07-09T11:13:55;4;4;3
70243;PMS7003;57634;51.136;17.024;2023-07-09T11:17:06;6;5;5
70243;PMS7003;57634;51.136;17.024;2023-07-09T11:23:53;6;6;5
70243;PMS7003;57634;51.136;17.024;2023-07-09T11:26:57;5;5;5
70243;PMS7003;57634;51.136;17.024;2023-07-09T11:30:18;5;5;5
70243;PMS7003;57634;51.136;17.024;2023-07-09T11:33:16;8;7;6
70243;PMS7003;57634;51.136;17.024;2023-07-09T11:39:31;5;5;4
70243;PMS7003;57634;51.136;17.024;2023-07-09T11:43:24;5;5;4
70243;PMS7003;57634;51.136;17.024;2023-07-09T11:46:22;6;6;4
70243;PMS7003;57634;51.136;17.024;2023-07-09T11:49:28;6;6;5
70243;PMS7003;57634;51.136;17.024;2023-07-09T11:52:38;6;6;5
70243;PMS7003;57634;51.136;17.024;2023-07-09T11:55:45;4;4;4
70243;PMS7003;57634;51.136;17.024;2023-07-09T11:58:48;5;5;4
70243;PMS7003;57634;51.136;17.024;2023-07-09T12:02:30;6;6;5
70243;PMS7003;57634;51.136;17.024;2023-07-09T12:05:35;5;5;4
70243;PMS7003;57634;51.136;17.024;2023-07-09T12:08:40;7;7;6
70243;PMS7003;57634;51.136;17.024;2023-07-09T12:11:44;9;7;6
70243;PMS7003;57634;51.136;17.024;2023-07-09T12:14:50;7;7;5
70243;PMS7003;57634;51.136;17.024;2023-07-09T12:17:56;6;6;5
70243;PMS7003;57634;51.136;17.024;2023-07-09T12:21:05;6;6;5
70243;PMS7003;57634;51.136;17.024;2023-07-09T12:24:36;16;16;12
70243;PMS7003;57634;51.136;17.024;2023-07-09T12:27:41;10;10;9
70243;PMS7003;57634;51.136;17.024;2023-07-09T12:30:46;6;6;5
70243;PMS7003;57634;51.136;17.024;2023-07-09T12:33:49;7;7;6
70243;PMS7003;57634;51.136;17.024;2023-07-09T12:36:54;4;4;4
70243;PMS7003;57634;51.136;17.024;2023-07-09T12:39:58;6;6;5
70243;PMS7003;57634;51.136;17.024;2023-07-09T12:43:03;5;5;4
70243;PMS7003;57634;51.136;17.024;2023-07-09T12:46:05;8;8;7
70243;PMS7003;57634;51.136;17.024;2023-07-09T12:49:06;8;8;7
70243;PMS7003;57634;51.136;17.024;2023-07-09T12:52:09;6;6;5
70243;PMS7003;57634;51.136;17.024;2023-07-09T12:55:42;7;7;6
70243;PMS7003;57634;51.136;17.024;2023-07-09T12:58:47;7;7;6
70243;PMS7003;57634;51.136;17.024;2023-07-09T13:05:02;10;10;8
70243;PMS7003;57634;51.136;17.024;2023-07-09T13:08:11;8;8;6
70243;PMS7003;57634;51.136;17.024;2023-07-09T13:11:18;6;6;5
70243;PMS7003;57634;51.136;17.024;2023-07-09T13:19:02;7;6;4
70243;PMS7003;57634;51.136;17.024;2023-07-09T13:22:04;4;4;3
70243;PMS7003;57634;51.136;17.024;2023-07-09T13:25:09;6;6;5
70243;PMS7003;57634;51.136;17.024;2023-07-09T13:31:21;6;6;5
70243;PMS7003;57634;51.136;17.024;2023-07-09T13:34:23;5;5;4
70243;PMS7003;57634;51.136;17.024;2023-07-09T13:37:26;7;7;5
70243;PMS7003;57634;51.136;17.024;2023-07-09T13:40:55;6;6;5
70243;PMS7003;57634;51.136;17.024;2023-07-09T13:44:01;7;7;5
70243;PMS7003;57634;51.136;17.024;2023-07-09T13:47:02;5;5;5
70243;PMS7003;57634;51.136;17.024;2023-07-09T13:50:04;5;5;4
70243;PMS7003;57634;51.136;17.024;2023-07-09T13:53:09;4;4;3
70243;PMS7003;57634;51.136;17.024;2023-07-09T13:56:18;5;5;4
70243;PMS7003;57634;51.136;17.024;2023-07-09T13:59:21;5;5;5
70243;PMS7003;57634;51.136;17.024;2023-07-09T14:02:28;5;5;4
70243;PMS7003;57634;51.136;17.024;2023-07-09T14:05:59;6;6;5
70243;PMS7003;57634;51.136;17.024;2023-07-09T14:09:01;5;5;4
70243;PMS7003;57634;51.136;17.024;2023-07-09T14:12:04;5;5;4
70243;PMS7003;57634;51.136;17.024;2023-07-09T14:18:24;7;7;5
70243;PMS7003;57634;51.136;17.024;2023-07-09T14:21:25;7;6;5
70243;PMS7003;57634;51.136;17.024;2023-07-09T14:24:28;4;4;4
70243;PMS7003;57634;51.136;17.024;2023-07-09T14:27:30;5;5;4
70243;PMS7003;57634;51.136;17.024;2023-07-09T14:30:32;5;5;4
70243;PMS7003;57634;51.136;17.024;2023-07-09T14:34:12;5;5;4
70243;PMS7003;57634;51.136;17.024;2023-07-09T14:37:13;5;5;4
70243;PMS7003;57634;51.136;17.024;2023-07-09T14:40:14;5;5;4
70243;PMS7003;57634;51.136;17.024;2023-07-09T14:43:18;4;4;4
70243;PMS7003;57634;51.136;17.024;2023-07-09T14:46:19;6;4;3
70243;PMS7003;57634;51.136;17.024;2023-07-09T14:49:20;5;5;4
70243;PMS7003;57634;51.136;17.024;2023-07-09T14:52:21;6;5;4
70243;PMS7003;57634;51.136;17.024;2023-07-09T14:55:23;5;4;4
70243;PMS7003;57634;51.136;17.024;2023-07-09T14:58:29;5;5;4
70243;PMS7003;57634;51.136;17.024;2023-07-09T15:01:31;4;4;4
70243;PMS7003;57634;51.136;17.024;2023-07-09T15:05:00;5;4;4
70243;PMS7003;57634;51.136;17.024;2023-07-09T15:08:12;3;3;3
70243;PMS7003;57634;51.136;17.024;2023-07-09T15:11:15;3;3;3
70243;PMS7003;57634;51.136;17.024;2023-07-09T15:14:17;3;3;2
70243;PMS7003;57634;51.136;17.024;2023-07-09T15:17:19;5;5;4
70243;PMS7003;57634;51.136;17.024;2023-07-09T15:20:24;4;4;3
70243;PMS7003;57634;51.136;17.024;2023-07-09T15:23:30;5;4;3
70243;PMS7003;57634;51.136;17.024;2023-07-09T15:26:33;3;3;3
70243;PMS7003;57634;51.136;17.024;2023-07-09T15:29:35;4;4;3
70243;PMS7003;57634;51.136;17.024;2023-07-09T15:33:02;5;5;4
70243;PMS7003;57634;51.136;17.024;2023-07-09T15:36:12;5;5;4
70243;PMS7003;57634;51.136;17.024;2023-07-09T15:39:13;5;4;3
70243;PMS7003;57634;51.136;17.024;2023-07-09T15:42:14;4;4;3
70243;PMS7003;57634;51.136;17.024;2023-07-09T15:45:16;4;4;4
70243;PMS7003;57634;51.136;17.024;2023-07-09T15:48:25;7;6;5
70243;PMS7003;57634;51.136;17.024;2023-07-09T15:54:38;5;5;4
70243;PMS7003;57634;51.136;17.024;2023-07-09T15:58:08;5;5;4
70243;PMS7003;57634;51.136;17.024;2023-07-09T16:01:17;5;5;4
70243;PMS7003;57634;51.136;17.024;2023-07-09T16:04:18;4;4;4
70243;PMS7003;57634;51.136;17.024;2023-07-09T16:07:20;5;5;4
70243;PMS7003;57634;51.136;17.024;2023-07-09T16:10:27;5;5;4
70243;PMS7003;57634;51.136;17.024;2023-07-09T16:13:31;5;4;4
70243;PMS7003;57634;51.136;17.024;2023-07-09T16:16:32;6;6;4
70243;PMS7003;57634;51.136;17.024;2023-07-09T16:19:34;5;5;4
70243;PMS7003;57634;51.136;17.024;2023-07-09T16:22:35;7;7;5
70243;PMS7003;57634;51.136;17.024;2023-07-09T16:25:39;6;6;4
70243;PMS7003;57634;51.136;17.024;2023-07-09T16:29:12;6;6;4
70243;PMS7003;57634;51.136;17.024;2023-07-09T16:32:19;7;6;4
70243;PMS7003;57634;51.136;17.024;2023-07-09T16:35:21;6;5;4
70243;PMS7003;57634;51.136;17.024;2023-07-09T16:38:26;5;5;4
70243;PMS7003;57634;51.136;17.024;2023-07-09T16:41:27;5;5;4
70243;PMS7003;57634;51.136;17.024;2023-07-09T16:44:28;6;5;3
70243;PMS7003;57634;51.136;17.024;2023-07-09T16:47:30;5;4;4
70243;PMS7003;57634;51.136;17.024;2023-07-09T16:50:31;5;5;4
70243;PMS7003;57634;51.136;17.024;2023-07-09T16:53:32;3;3;3
70243;PMS7003;57634;51.136;17.024;2023-07-09T16:56:34;4;4;3
70243;PMS7003;57634;51.136;17.024;2023-07-09T16:59:36;3;3;2
70243;PMS7003;57634;51.136;17.024;2023-07-09T17:03:04;4;4;3
70243;PMS7003;57634;51.136;17.024;2023-07-09T17:06:10;3;3;3
70243;PMS7003;57634;51.136;17.024;2023-07-09T17:09:12;3;3;3
70243;PMS7003;57634;51.136;17.024;2023-07-09T17:12:14;3;3;3
70243;PMS7003;57634;51.136;17.024;2023-07-09T17:15:22;4;4;3
70243;PMS7003;57634;51.136;17.024;2023-07-09T17:18:27;3;3;2
70243;PMS7003;57634;51.136;17.024;2023-07-09T17:21:33;3;3;2
70243;PMS7003;57634;51.136;17.024;2023-07-09T17:24:34;4;4;3
70243;PMS7003;57634;51.136;17.024;2023-07-09T17:27:36;3;3;3
70243;PMS7003;57634;51.136;17.024;2023-07-09T17:31:05;3;3;3
70243;PMS7003;57634;51.136;17.024;2023-07-09T17:34:07;5;5;3
70243;PMS7003;57634;51.136;17.024;2023-07-09T17:37:12;3;3;3
70243;PMS7003;57634;51.136;17.024;2023-07-09T17:40:21;3;3;3
70243;PMS7003;57634;51.136;17.024;2023-07-09T17:43:28;4;4;3
70243;PMS7003;57634;51.136;17.024;2023-07-09T17:46:29;4;4;4
70243;PMS7003;57634;51.136;17.024;2023-07-09T17:49:31;5;5;4
70243;PMS7003;57634;51.136;17.024;2023-07-09T17:52:35;5;5;4
70243;PMS7003;57634;51.136;17.024;2023-07-09T17:55:36;5;5;4
70243;PMS7003;57634;51.136;17.024;2023-07-09T17:58:38;4;4;3
70243;PMS7003;57634;51.136;17.024;2023-07-09T18:02:11;4;4;4
70243;PMS7003;57634;51.136;17.024;2023-07-09T18:08:28;5;5;4
70243;PMS7003;57634;51.136;17.024;2023-07-09T18:11:29;5;5;4
70243;PMS7003;57634;51.136;17.024;2023-07-09T18:14:38;4;4;3
70243;PMS7003;57634;51.136;17.024;2023-07-09T18:17:44;4;4;3
70243;PMS7003;57634;51.136;17.024;2023-07-09T18:20:46;5;5;4
70243;PMS7003;57634;51.136;17.024;2023-07-09T18:23:50;5;5;4
70243;PMS7003;57634;51.136;17.024;2023-07-09T18:27:21;4;4;4
70243;PMS7003;57634;51.136;17.024;2023-07-09T18:30:29;4;4;3
70243;PMS7003;57634;51.136;17.024;2023-07-09T18:33:36;3;3;2
70243;PMS7003;57634;51.136;17.024;2023-07-09T18:36:37;3;3;2
70243;PMS7003;57634;51.136;17.024;2023-07-09T18:39:39;4;4;3
70243;PMS7003;57634;51.136;17.024;2023-07-09T18:42:40;3;3;2
70243;PMS7003;57634;51.136;17.024;2023-07-09T18:45:41;4;4;3
70243;PMS7003;57634;51.136;17.024;2023-07-09T18:48:44;6;6;4
70243;PMS7003;57634;51.136;17.024;2023-07-09T18:51:45;3;3;2
70243;PMS7003;57634;51.136;17.024;2023-07-09T18:58:22;4;4;3
70243;PMS7003;57634;51.136;17.024;2023-07-09T19:01:26;5;4;4
70243;PMS7003;57634;51.136;17.024;2023-07-09T19:04:30;5;5;3
70243;PMS7003;57634;51.136;17.024;2023-07-09T19:07:35;5;5;4
70243;PMS7003;57634;51.136;17.024;2023-07-09T19:10:36;5;5;4
70243;PMS7003;57634;51.136;17.024;2023-07-09T19:13:37;5;5;4
70243;PMS7003;57634;51.136;17.024;2023-07-09T19:16:39;6;5;4
70243;PMS7003;57634;51.136;17.024;2023-07-09T19:19:41;7;7;5
70243;PMS7003;57634;51.136;17.024;2023-07-09T19:22:43;7;6;5
70243;PMS7003;57634;51.136;17.024;2023-07-09T19:25:45;9;7;5
70243;PMS7003;57634;51.136;17.024;2023-07-09T19:28:47;6;6;5
70243;PMS7003;57634;51.136;17.024;2023-07-09T19:31:58;5;5;4
70243;PMS7003;57634;51.136;17.024;2023-07-09T19:35:31;6;6;4
70243;PMS7003;57634;51.136;17.024;2023-07-09T19:38:33;5;5;4
70243;PMS7003;57634;51.136;17.024;2023-07-09T19:41:34;5;5;4
70243;PMS7003;57634;51.136;17.024;2023-07-09T19:44:35;6;6;5
70243;PMS7003;57634;51.136;17.024;2023-07-09T19:47:37;6;5;5
70243;PMS7003;57634;51.136;17.024;2023-07-09T19:50:40;6;6;5
70243;PMS7003;57634;51.136;17.024;2023-07-09T19:53:47;9;9;8
70243;PMS7003;57634;51.136;17.024;2023-07-09T19:56:48;15;14;12
70243;PMS7003;57634;51.136;17.024;2023-07-09T19:59:50;13;12;8
70243;PMS7003;57634;51.136;17.024;2023-07-09T20:02:51;5;5;3
70243;PMS7003;57634;51.136;17.024;2023-07-09T20:05:53;6;6;5
70243;PMS7003;57634;51.136;17.024;2023-07-09T20:08:56;6;6;4
70243;PMS7003;57634;51.136;17.024;2023-07-09T20:12:24;6;5;4
70243;PMS7003;57634;51.136;17.024;2023-07-09T20:15:27;5;5;4
70243;PMS7003;57634;51.136;17.024;2023-07-09T20:18:29;6;5;4
70243;PMS7003;57634;51.136;17.024;2023-07-09T20:21:31;7;7;6
70243;PMS7003;57634;51.136;17.024;2023-07-09T20:24:35;6;6;4
70243;PMS7003;57634;51.136;17.024;2023-07-09T20:27:43;4;4;4
70243;PMS7003;57634;51.136;17.024;2023-07-09T20:31:02;4;4;4
70243;PMS7003;57634;51.136;17.024;2023-07-09T20:37:34;7;7;6
70243;PMS7003;57634;51.136;17.024;2023-07-09T20:40:35;6;6;4
70243;PMS7003;57634;51.136;17.024;2023-07-09T20:43:38;7;6;5
70243;PMS7003;57634;51.136;17.024;2023-07-09T20:46:41;8;7;5
70243;PMS7003;57634;51.136;17.024;2023-07-09T20:49:42;7;6;4
70243;PMS7003;57634;51.136;17.024;2023-07-09T20:52:44;8;7;5
70243;PMS7003;57634;51.136;17.024;2023-07-09T20:55:46;6;6;5
70243;PMS7003;57634;51.136;17.024;2023-07-09T20:58:48;6;5;5
70243;PMS7003;57634;51.136;17.024;2023-07-09T21:01:51;7;7;5
70243;PMS7003;57634;51.136;17.024;2023-07-09T21:04:53;6;6;5
70243;PMS7003;57634;51.136;17.024;2023-07-09T21:07:56;7;7;6
70243;PMS7003;57634;51.136;17.024;2023-07-09T21:10:57;6;6;5
70243;PMS7003;57634;51.136;17.024;2023-07-09T21:13:58;5;5;4
70243;PMS7003;57634;51.136;17.024;2023-07-09T21:17:25;5;5;4
70243;PMS7003;57634;51.136;17.024;2023-07-09T21:20:29;5;5;4
70243;PMS7003;57634;51.136;17.024;2023-07-09T21:23:31;6;6;4
70243;PMS7003;57634;51.136;17.024;2023-07-09T21:26:33;6;6;5
70243;PMS7003;57634;51.136;17.024;2023-07-09T21:29:34;6;6;5
70243;PMS7003;57634;51.136;17.024;2023-07-09T21:32:35;8;8;7
70243;PMS7003;57634;51.136;17.024;2023-07-09T21:35:37;8;8;6